Time;durP1;ratioP1;P1;durP2;ratioP2;P2;SDS_P1;SDS_P2;PMS_P1;PMS_P2;Temp;Humidity;BMP_temperature;BMP_pressure;BME280_temperature;BME280_humidity;BME280_pressure;Samples;Min_cycle;Max_cycle;Signal;HPM_P1;HPM_P2
2021/09/08 00:03:11;;;;;;;21.50;15.18;;;;;;;19.76;56.71;101906.84;10539256;28;20067;-75
2021/09/08 00:08:11;;;;;;;20.55;15.85;;;;;;;20.29;56.62;101985.75;10520718;28;20044;-75
2021/09/08 00:13:12;;;;;;;17.67;14.35;;;;;;;20.27;56.62;101985.16;10540653;28;20048;-75
2021/09/08 00:18:12;;;;;;;20.40;16.90;;;;;;;20.16;56.92;101976.63;10547351;28;20048;-75
2021/09/08 00:23:12;;;;;;;20.13;14.77;;;;;;;20.10;57.27;101968.50;10546968;28;20124;-75
2021/09/08 00:28:13;;;;;;;21.30;16.13;;;;;;;19.95;57.14;101952.44;10529385;28;20372;-74
2021/09/08 00:33:13;;;;;;;28.85;17.75;;;;;;;20.06;57.94;101959.88;10546745;28;20028;-75
2021/09/08 00:38:14;;;;;;;27.75;16.77;;;;;;;19.96;58.35;101932.94;10528365;28;20050;-75
2021/09/08 00:43:14;;;;;;;19.27;15.65;;;;;;;19.91;58.24;101929.22;10511300;28;20036;-74
2021/09/08 00:48:15;;;;;;;30.23;18.60;;;;;;;20.13;58.30;101938.63;10527678;28;20035;-75
2021/09/08 00:53:16;;;;;;;28.75;19.50;;;;;;;19.85;58.56;101902.69;10545769;28;20059;-75
2021/09/08 00:58:16;;;;;;;25.85;16.20;;;;;;;20.05;58.07;101918.88;10545283;28;20035;-75
2021/09/08 01:03:17;;;;;;;29.33;18.42;;;;;;;20.00;58.14;101905.81;10545460;28;20035;-75
2021/09/08 01:08:17;;;;;;;29.50;16.63;;;;;;;20.06;58.44;101926.88;10544887;28;20086;-75
2021/09/08 01:13:17;;;;;;;21.70;15.82;;;;;;;20.04;58.32;101933.69;10509970;28;20047;-75
2021/09/08 01:18:18;;;;;;;23.70;16.95;;;;;;;20.03;58.07;101924.59;10544767;28;20063;-75
2021/09/08 01:23:18;;;;;;;33.40;16.23;;;;;;;19.98;57.62;101919.81;10543816;28;20064;-74
2021/09/08 01:28:19;;;;;;;25.42;17.25;;;;;;;19.80;57.29;101905.31;10543684;28;20035;-75
2021/09/08 01:33:19;;;;;;;30.13;18.88;;;;;;;19.86;57.44;101929.09;10544472;28;20114;-74
2021/09/08 01:38:19;;;;;;;22.35;17.00;;;;;;;19.34;57.38;101846.34;10543538;28;20066;-74
2021/09/08 01:43:24;;;;;;;19.08;16.67;;;;;;;19.60;57.61;101911.91;10526109;28;20123;-75
2021/09/08 01:48:24;;;;;;;34.65;19.10;;;;;;;19.49;58.25;101885.22;10543471;28;20055;-75
2021/09/08 01:53:24;;;;;;;22.58;15.05;;;;;;;19.66;58.26;101904.69;10542770;28;20130;-75
2021/09/08 01:58:25;;;;;;;26.30;17.80;;;;;;;19.61;58.53;101908.06;10543779;28;20036;-74
2021/09/08 02:03:25;;;;;;;23.40;18.35;;;;;;;19.61;58.22;101904.50;10524782;28;20039;-75
2021/09/08 02:08:26;;;;;;;29.52;19.75;;;;;;;18.94;58.29;101792.81;10542736;28;20040;-75
2021/09/08 02:13:26;;;;;;;28.48;16.40;;;;;;;19.56;58.51;101907.94;10542179;28;20169;-75
2021/09/08 02:18:26;;;;;;;24.92;16.60;;;;;;;19.03;57.80;101818.03;10542342;28;20036;-75
2021/09/08 02:23:27;;;;;;;27.75;16.85;;;;;;;19.51;57.73;101902.31;10541394;28;20038;-75
2021/09/08 02:28:27;;;;;;;21.00;16.73;;;;;;;19.16;57.51;101859.03;10541931;28;20353;-75
2021/09/08 02:33:28;;;;;;;31.15;16.83;;;;;;;19.41;57.50;101911.09;10541731;28;20039;-75
2021/09/08 02:38:30;;;;;;;26.45;19.27;;;;;;;17.33;57.54;101585.66;10522375;28;20063;-75
2021/09/08 02:43:30;;;;;;;26.75;18.80;;;;;;;18.91;58.02;101858.31;10541447;28;20028;-75
2021/09/08 02:48:31;;;;;;;30.15;19.23;;;;;;;18.63;57.68;101820.41;10540979;28;20084;-75
2021/09/08 02:53:33;;;;;;;32.60;20.25;;;;;;;17.42;58.13;101631.69;10539977;28;20135;-75
2021/09/08 02:58:33;;;;;;;29.77;18.67;;;;;;;18.88;58.56;101886.22;10522920;28;20044;-75
2021/09/08 03:03:33;;;;;;;26.33;19.08;;;;;;;18.82;59.51;101882.47;10522793;28;20491;-75
2021/09/08 03:08:34;;;;;;;26.40;18.42;;;;;;;18.84;59.51;101876.75;10540322;28;20044;-74
2021/09/08 03:13:34;;;;;;;29.70;18.35;;;;;;;18.23;59.39;101766.84;10522343;28;20036;-75
2021/09/08 03:18:35;;;;;;;23.73;17.42;;;;;;;18.81;60.15;101856.94;10540118;28;20063;-75
2021/09/08 03:23:35;;;;;;;31.92;18.85;;;;;;;18.97;59.47;101873.84;10540003;28;20047;-75
2021/09/08 03:28:35;;;;;;;23.83;17.80;;;;;;;19.04;59.45;101875.44;10521542;28;20387;-75
2021/09/08 03:33:36;;;;;;;31.98;19.77;;;;;;;19.11;58.86;101886.34;10539925;28;20086;-74
2021/09/08 03:38:36;;;;;;;29.95;17.65;;;;;;;19.11;58.51;101864.38;10504614;28;20491;-75
2021/09/08 03:43:36;;;;;;;30.08;20.27;;;;;;;18.41;58.51;101763.28;10539740;28;20036;-75
2021/09/08 03:48:37;;;;;;;25.85;17.23;;;;;;;18.97;58.91;101858.22;10545182;28;20035;-75
2021/09/08 03:53:37;;;;;;;23.88;18.65;;;;;;;18.97;58.98;101860.97;10552727;28;20051;-75
2021/09/08 03:58:38;;;;;;;35.05;20.27;;;;;;;18.94;59.26;101844.13;10553046;28;20435;-75
2021/09/08 04:03:38;;;;;;;27.63;18.52;;;;;;;18.87;59.57;101838.72;10553003;28;20047;-75
2021/09/08 04:08:38;;;;;;;29.88;18.55;;;;;;;17.73;59.38;101662.75;10553093;28;20074;-75
2021/09/08 04:13:39;;;;;;;30.30;19.00;;;;;;;18.59;59.60;101818.09;10552837;28;20043;-75
2021/09/08 04:18:39;;;;;;;28.13;20.65;;;;;;;18.56;60.33;101813.06;10552550;28;20499;-75
2021/09/08 04:23:39;;;;;;;29.48;19.50;;;;;;;18.51;60.76;101848.59;10534429;28;20040;-75
2021/09/08 04:28:40;;;;;;;26.77;19.02;;;;;;;18.36;61.57;101807.81;10552402;28;20055;-74
2021/09/08 04:33:40;;;;;;;31.05;18.60;;;;;;;18.31;61.95;101799.44;10552292;28;20360;-75
2021/09/08 04:38:45;;;;;;;25.30;20.92;;;;;;;18.55;61.95;101822.38;10552268;28;20044;-75
2021/09/08 04:43:45;;;;;;;25.08;18.17;;;;;;;18.57;61.94;101814.78;10551932;28;20119;-75
2021/09/08 04:48:46;;;;;;;31.75;20.52;;;;;;;18.45;61.94;101793.81;10552143;28;20449;-75
2021/09/08 04:53:46;;;;;;;31.83;20.23;;;;;;;18.57;61.90;101814.78;10533251;28;20109;-76
2021/09/08 04:58:46;;;;;;;42.15;22.95;;;;;;;17.16;62.60;101594.44;10532261;28;20032;-76
2021/09/08 05:03:47;;;;;;;33.55;20.65;;;;;;;18.40;62.45;101796.41;10545781;28;20040;-74
2021/09/08 05:08:49;;;;;;;37.20;20.58;;;;;;;18.41;62.85;101789.84;10485713;28;20051;-73
2021/09/08 05:13:49;;;;;;;26.10;18.38;;;;;;;18.26;62.61;101769.13;10526991;28;20036;-72
2021/09/08 05:18:50;;;;;;;22.13;18.42;;;;;;;18.42;62.59;101802.50;10526439;28;20103;-73
2021/09/08 05:23:51;;;;;;;29.27;21.33;;;;;;;18.56;62.84;101796.63;10508945;28;20094;-73
2021/09/08 05:28:51;;;;;;;36.30;22.38;;;;;;;18.49;63.60;101801.34;10543058;28;20040;-74
2021/09/08 05:33:52;;;;;;;27.48;19.35;;;;;;;18.42;63.13;101773.16;10544830;28;20089;-74
2021/09/08 05:38:52;;;;;;;29.85;21.63;;;;;;;17.50;63.06;101625.06;10544265;28;20076;-73
2021/09/08 05:43:52;;;;;;;40.30;21.98;;;;;;;18.64;62.92;101795.50;10543951;28;20039;-73
2021/09/08 05:48:53;;;;;;;40.03;23.58;;;;;;;18.69;62.70;101792.88;10543139;28;20036;-73
2021/09/08 05:53:53;;;;;;;36.25;22.35;;;;;;;17.90;63.13;101654.84;10543468;28;20052;-73
2021/09/08 05:58:53;;;;;;;35.67;22.08;;;;;;;18.89;63.61;101795.44;10499296;28;20123;-73
2021/09/08 06:03:54;;;;;;;31.73;22.92;;;;;;;20.10;61.13;101787.88;10524685;28;20480;-73
2021/09/08 06:08:54;;;;;;;28.20;20.48;;;;;;;21.28;58.15;101785.66;10524181;28;20427;-73
2021/09/08 06:13:55;;;;;;;39.88;23.55;;;;;;;22.00;56.75;101784.13;10542151;28;20036;-73
2021/09/08 06:18:55;;;;;;;29.77;20.33;;;;;;;22.49;55.06;101787.91;10542713;28;20475;-73
2021/09/08 06:23:56;;;;;;;28.25;19.17;;;;;;;22.92;54.15;101794.50;10523195;28;20047;-74
2021/09/08 06:28:56;;;;;;;22.73;16.73;;;;;;;23.57;52.93;101783.56;10541687;28;20032;-74
2021/09/08 06:33:57;;;;;;;34.35;21.15;;;;;;;23.87;51.85;101781.09;10542335;28;20040;-73
2021/09/08 06:38:57;;;;;;;24.17;18.20;;;;;;;23.79;52.03;101723.47;10541319;28;20044;-74
2021/09/08 06:43:57;;;;;;;23.95;19.77;;;;;;;24.75;49.88;101763.84;10541327;28;20047;-74
2021/09/08 06:48:58;;;;;;;25.92;19.50;;;;;;;24.51;49.99;101647.22;10522628;28;20387;-74
2021/09/08 06:53:58;;;;;;;23.67;17.85;;;;;;;25.56;48.90;101753.19;10497081;28;20137;-73
2021/09/08 06:58:59;;;;;;;28.02;18.55;;;;;;;25.74;48.23;101759.03;10498733;28;20396;-73
2021/09/08 07:03:59;;;;;;;24.88;18.40;;;;;;;26.09;48.36;101746.22;10498288;28;20037;-74
2021/09/08 07:09:00;;;;;;;32.78;17.05;;;;;;;26.57;46.71;101746.66;10480731;28;20040;-74
2021/09/08 07:14:00;;;;;;;27.88;18.13;;;;;;;26.26;46.06;101634.00;10480569;28;20131;-74
2021/09/08 07:19:00;;;;;;;23.65;19.27;;;;;;;27.15;47.75;101726.59;10498145;28;20037;-74
2021/09/08 07:24:01;;;;;;;21.67;17.75;;;;;;;26.72;45.70;101717.13;10497030;28;20059;-74
2021/09/08 07:29:03;;;;;;;28.42;18.20;;;;;;;26.94;44.92;101728.69;10479779;28;20115;-74
2021/09/08 07:34:03;;;;;;;24.73;18.48;;;;;;;26.29;46.51;101727.84;10497553;28;20102;-74
2021/09/08 07:39:03;;;;;;;24.25;18.58;;;;;;;26.86;45.97;101723.72;10497313;28;20107;-74
2021/09/08 07:44:04;;;;;;;33.92;16.80;;;;;;;26.86;45.19;101720.94;10496909;28;20369;-74
2021/09/08 07:49:04;;;;;;;31.73;17.15;;;;;;;26.62;45.16;101720.81;10497668;28;20111;-74
2021/09/08 07:54:05;;;;;;;22.45;16.73;;;;;;;26.35;46.47;101512.91;10510866;28;20669;-74
2021/09/08 07:59:05;;;;;;;21.30;17.13;;;;;;;28.42;44.33;101716.19;10539361;28;20098;-74
2021/09/08 08:04:05;;;;;;;21.73;17.25;;;;;;;27.94;44.17;101720.94;10520777;28;20051;-74
2021/09/08 08:09:06;;;;;;;23.80;16.88;;;;;;;28.16;44.80;101712.03;10538828;28;20043;-74
2021/09/08 08:14:07;;;;;;;24.40;16.70;;;;;;;27.68;43.40;101637.66;10520264;28;20036;-74
2021/09/08 08:19:07;;;;;;;23.17;18.63;;;;;;;27.28;44.05;101588.84;10538638;28;20024;-74
2021/09/08 08:24:07;;;;;;;25.83;16.33;;;;;;;28.18;45.70;101715.38;10537821;28;20032;-74
2021/09/08 08:29:08;;;;;;;18.10;16.00;;;;;;;27.99;43.44;101665.19;10538291;28;20462;-74
2021/09/08 08:34:09;;;;;;;23.83;15.50;;;;;;;28.58;44.17;101686.16;10538500;28;20043;-74
2021/09/08 08:39:09;;;;;;;17.98;16.23;;;;;;;28.56;43.61;101693.16;10527876;28;20036;-74
2021/09/08 08:44:09;;;;;;;21.05;14.95;;;;;;;28.50;45.77;101686.84;10545226;28;20456;-74
2021/09/08 08:49:10;;;;;;;21.63;16.05;;;;;;;28.64;45.77;101704.47;10527627;28;20074;-74
2021/09/08 08:54:10;;;;;;;21.27;15.73;;;;;;;29.01;44.34;101702.03;10544824;28;20069;-74
2021/09/08 08:59:11;;;;;;;32.38;17.83;;;;;;;29.35;43.34;101685.81;10544154;28;20044;-74
2021/09/08 09:04:13;;;;;;;25.13;15.93;;;;;;;29.12;42.49;101690.41;10544954;28;20027;-74
2021/09/08 09:09:17;;;;;;;22.60;16.23;;;;;;;29.10;48.58;101694.63;10526075;28;20044;-74
2021/09/08 09:14:18;;;;;;;19.83;14.88;;;;;;;29.15;42.83;101680.59;10544603;28;20040;-74
2021/09/08 09:19:19;;;;;;;21.20;16.85;;;;;;;29.09;41.35;101620.47;10544297;28;20032;-74
2021/09/08 09:24:19;;;;;;;23.73;18.92;;;;;;;29.44;41.85;101688.75;10544538;28;20040;-75
2021/09/08 09:29:20;;;;;;;19.70;16.55;;;;;;;29.24;40.58;101658.44;10526229;28;20036;-74
2021/09/08 09:34:21;;;;;;;17.58;15.25;;;;;;;29.93;42.14;101672.50;10525605;28;20033;-74
2021/09/08 09:39:22;;;;;;;16.58;14.95;;;;;;;30.10;44.54;101693.09;10509014;28;20430;-74
2021/09/08 09:44:22;;;;;;;20.45;16.02;;;;;;;30.38;42.03;101684.75;10542725;28;20043;-74
2021/09/08 09:49:24;;;;;;;25.63;15.63;;;;;;;31.03;40.23;101695.56;10542883;28;20487;-74
2021/09/08 09:54:25;;;;;;;19.85;15.63;;;;;;;30.65;38.62;101678.25;10488764;28;20543;-75
2021/09/08 09:59:26;;;;;;;17.63;14.48;;;;;;;30.57;42.33;101660.28;10501016;28;20059;-74
2021/09/08 10:04:27;;;;;;;16.85;13.27;;;;;;;30.75;39.88;101669.63;10482445;28;20029;-75
2021/09/08 10:09:27;;;;;;;23.90;14.73;;;;;;;31.11;39.85;101639.97;10500568;28;20043;-75
2021/09/08 10:14:29;;;;;;;15.85;11.93;;;;;;;31.55;37.15;101660.69;10482417;28;20035;-74
2021/09/08 10:19:30;;;;;;;16.00;12.55;;;;;;;30.78;38.77;101532.00;10482659;28;20456;-75
2021/09/08 10:24:31;;;;;;;13.88;12.43;;;;;;;31.55;39.92;101652.28;10481494;28;20036;-74
2021/09/08 10:29:31;;;;;;;14.73;11.40;;;;;;;31.94;38.17;101635.53;10499238;28;20480;-75
2021/09/08 10:34:31;;;;;;;21.58;12.40;;;;;;;32.37;38.89;101620.75;10465094;28;20037;-75
2021/09/08 10:39:32;;;;;;;11.93;10.48;;;;;;;32.77;35.36;101628.22;10464753;28;20507;-75
2021/09/08 10:44:40;;;;;;;18.10;11.30;;;;;;;31.93;36.92;101549.00;10480880;28;20040;-75
2021/09/08 10:49:40;;;;;;;14.77;10.90;;;;;;;32.86;41.72;101629.84;10498993;28;20052;-75
2021/09/08 10:54:56;;;;;;;19.27;12.07;;;;;;;32.18;39.46;101489.34;10535873;28;20503;-75
2021/09/08 11:00:00;;;;;;;16.53;11.93;;;;;;;33.37;35.61;101590.81;10540409;28;20124;-76
2021/09/08 11:05:00;;;;;;;11.98;10.82;;;;;;;33.51;35.79;101597.09;10540735;28;20460;-74
2021/09/08 11:10:00;;;;;;;20.33;13.57;;;;;;;33.47;35.41;101598.03;10505347;28;20040;-75
2021/09/08 11:15:01;;;;;;;26.15;13.70;;;;;;;33.91;37.25;101585.47;10540978;28;20284;-75
2021/09/08 11:20:03;;;;;;;13.35;11.13;;;;;;;33.44;33.69;101559.41;10539818;28;20051;-75
2021/09/08 11:25:07;;;;;;;13.68;11.85;;;;;;;33.13;32.82;101580.19;10539034;28;20115;-75
2021/09/08 11:30:12;;;;;;;16.23;11.82;;;;;;;33.52;35.94;101477.97;10522011;28;20376;-75
2021/09/08 11:35:13;;;;;;;12.68;10.82;;;;;;;33.55;33.27;101558.72;10487193;28;20074;-75
2021/09/08 11:40:13;;;;;;;14.52;10.57;;;;;;;33.20;32.55;101534.75;10521258;28;20067;-75
2021/09/08 11:45:33;;;;;;;14.73;10.57;;;;;;;32.58;32.68;101323.75;10520629;28;20372;-75
2021/09/08 11:50:33;;;;;;;11.48;10.35;;;;;;;33.94;30.64;101503.28;10538782;28;20384;-75
2021/09/08 11:55:37;;;;;;;17.65;12.52;;;;;;;34.12;30.42;101525.69;10520506;28;20554;-75
2021/09/08 12:00:44;;;;;;;13.60;10.55;;;;;;;33.70;30.67;101416.91;10521542;28;20444;-75
2021/09/08 12:05:45;;;;;;;10.98;9.88;;;;;;;34.43;31.01;101460.56;10504694;28;20391;-75
2021/09/08 12:10:45;;;;;;;14.10;8.98;;;;;;;34.19;29.60;101495.03;10525594;28;20055;-75
2021/09/08 12:15:45;;;;;;;14.45;10.60;;;;;;;34.36;31.25;101524.97;10529028;28;20502;-75
2021/09/08 12:20:46;;;;;;;12.52;9.68;;;;;;;34.87;30.47;101517.22;10527966;28;20067;-75
2021/09/08 12:26:02;;;;;;;10.77;8.27;;;;;;;33.78;29.95;101452.50;10546783;28;20036;-75
2021/09/08 12:31:16;;;;;;;;;;;;;;;34.54;30.79;101514.44;10528981;28;20119;-75
2021/09/08 12:36:17;;;;;;;12.55;8.38;;;;;;;34.46;28.77;101496.41;10546142;28;19918;-75
2021/09/08 12:41:20;;;;;;;17.15;10.52;;;;;;;33.96;28.92;101523.44;10546201;28;20046;-75
2021/09/08 12:46:46;;;;;;;9.38;8.27;;;;;;;34.22;30.06;101497.16;10546118;28;20383;-75
2021/09/08 12:51:46;;;;;;;9.57;8.63;;;;;;;34.49;28.88;101462.84;10545394;28;20059;-75
2021/09/08 12:56:48;;;;;;;7.50;6.80;;;;;;;34.78;27.02;101424.47;10510863;28;20028;-75
2021/09/08 13:01:50;;;;;;;7.15;6.35;;;;;;;35.32;26.47;101469.34;10527337;28;20490;-75
2021/09/08 13:06:50;;;;;;;12.63;8.27;;;;;;;33.89;27.70;101370.59;10544557;28;20078;-75
2021/09/08 13:11:51;;;;;;;8.45;7.47;;;;;;;35.02;27.17;101431.28;10526726;28;20059;-75
2021/09/08 13:16:51;;;;;;;8.02;7.18;;;;;;;35.05;27.27;101451.13;10525967;28;20078;-75
2021/09/08 13:21:52;;;;;;;7.00;6.38;;;;;;;35.37;26.45;101446.53;10524900;28;20454;-75
2021/09/08 13:26:52;;;;;;;8.82;7.72;;;;;;;34.71;26.52;101421.41;10543961;28;20028;-75
2021/09/08 13:31:52;;;;;;;8.63;7.03;;;;;;;34.48;26.57;101424.59;10525645;28;20036;-75
2021/09/08 13:36:53;;;;;;;6.07;5.00;;;;;;;34.24;26.64;101402.06;10525726;28;20067;-75
2021/09/08 13:41:53;;;;;;;8.43;7.63;;;;;;;33.18;28.00;101302.13;10492277;28;20039;-75
2021/09/08 13:46:54;;;;;;;7.85;6.53;;;;;;;33.88;27.81;101391.44;10543686;28;20442;-75
2021/09/08 13:51:54;;;;;;;10.20;6.68;;;;;;;34.02;27.55;101397.66;10543188;28;20048;-75
2021/09/08 13:56:55;;;;;;;18.20;7.63;;;;;;;33.63;27.79;101390.50;10543226;28;20430;-75
2021/09/08 14:01:56;;;;;;;6.97;5.50;;;;;;;33.90;28.70;101387.13;10542733;28;20032;-75
2021/09/08 14:06:56;;;;;;;10.38;7.82;;;;;;;33.75;27.84;101368.91;10542271;28;20767;-75
2021/09/08 14:11:57;;;;;;;6.88;6.20;;;;;;;32.98;28.27;101222.41;10523845;28;20138;-75
2021/09/08 14:16:57;;;;;;;6.75;6.15;;;;;;;33.51;28.17;101358.41;10542024;28;20494;-75
2021/09/08 14:21:57;;;;;;;13.63;9.50;;;;;;;33.66;27.53;101345.69;10522687;28;20394;-75
2021/09/08 14:26:58;;;;;;;10.20;8.68;;;;;;;32.94;28.53;101297.16;10541867;28;20371;-75
2021/09/08 14:31:59;;;;;;;8.03;7.33;;;;;;;32.66;28.80;101291.22;10541067;28;20040;-75
2021/09/08 14:37:01;;;;;;;11.13;10.10;;;;;;;32.98;29.14;101323.41;10541683;28;20611;-75
2021/09/08 14:42:01;;;;;;;14.10;9.98;;;;;;;32.13;30.00;101306.56;10523493;28;20455;-75
2021/09/08 14:47:02;;;;;;;15.05;9.48;;;;;;;31.85;30.38;101298.53;10541000;28;20060;-75
2021/09/08 14:52:02;;;;;;;15.07;8.25;;;;;;;31.80;30.70;101326.72;10540551;28;20073;-75
2021/09/08 14:57:03;;;;;;;10.23;8.98;;;;;;;30.85;31.39;101281.84;10540792;28;20480;-75
2021/09/08 15:02:07;;;;;;;9.43;8.43;;;;;;;30.57;31.88;101279.28;10522267;28;20055;-75
2021/09/08 15:07:08;;;;;;;13.13;8.05;;;;;;;30.51;32.88;101303.78;10521503;28;20480;-75
2021/09/08 15:12:10;;;;;;;11.23;9.23;;;;;;;30.12;32.98;101301.72;10539609;28;20102;-75
2021/09/08 15:17:10;;;;;;;8.80;8.00;;;;;;;30.22;33.05;101295.91;10540034;28;20028;-75
2021/09/08 15:22:10;;;;;;;12.50;9.93;;;;;;;29.82;33.16;101281.03;10539080;28;20036;-74
2021/09/08 15:27:11;;;;;;;8.68;7.72;;;;;;;29.69;33.44;101288.31;10521306;28;20043;-74
2021/09/08 15:32:11;;;;;;;8.50;7.43;;;;;;;29.09;33.21;101204.94;10521366;28;20039;-75
2021/09/08 15:37:12;;;;;;;8.70;7.28;;;;;;;29.33;34.08;101266.84;10539696;28;20032;-74
2021/09/08 15:42:12;;;;;;;11.25;7.03;;;;;;;28.32;33.86;101109.09;10521466;28;20036;-75
2021/09/08 15:47:13;;;;;;;14.95;6.70;;;;;;;29.13;34.52;101258.94;10521206;28;20364;-74
2021/09/08 15:52:14;;;;;;;9.48;8.57;;;;;;;29.30;34.21;101247.94;10520466;28;20117;-75
2021/09/08 15:57:14;;;;;;;10.52;7.57;;;;;;;29.40;34.25;101253.28;10538943;28;20040;-75
2021/09/08 16:02:15;;;;;;;9.38;8.52;;;;;;;28.97;34.63;101211.03;10538828;28;20495;-75
2021/09/08 16:07:18;;;;;;;11.48;7.57;;;;;;;29.22;34.84;101239.50;10538653;28;20036;-75
2021/09/08 16:12:24;;;;;;;7.85;7.05;;;;;;;28.94;35.06;101233.97;10538408;28;20051;-74
2021/09/08 16:17:24;;;;;;;9.95;7.40;;;;;;;28.32;34.95;101122.19;10538696;28;20451;-74
2021/09/08 16:22:25;;;;;;;6.88;6.18;;;;;;;28.80;35.89;101225.63;10521475;28;20173;-74
2021/09/08 16:27:25;;;;;;;15.40;7.07;;;;;;;28.77;35.69;101219.88;10539505;28;20128;-74
2021/09/08 16:32:26;;;;;;;8.65;7.78;;;;;;;28.79;35.81;101226.78;10538749;28;20503;-75
2021/09/08 16:37:26;;;;;;;7.38;6.63;;;;;;;28.66;36.02;101213.72;10538293;28;20471;-74
2021/09/08 16:42:26;;;;;;;10.90;7.57;;;;;;;29.07;35.51;101216.44;10520543;28;20051;-74
2021/09/08 16:47:27;;;;;;;12.48;8.13;;;;;;;28.56;35.94;101177.69;10538206;28;20066;-75
2021/09/08 16:52:27;;;;;;;7.82;7.03;;;;;;;28.82;36.62;101228.94;10537969;28;20412;-74
2021/09/08 16:57:27;;;;;;;12.85;8.95;;;;;;;28.81;36.90;101207.78;10523767;28;20077;-74
2021/09/08 17:02:28;;;;;;;30.50;11.80;;;;;;;28.50;37.91;101188.97;10545649;28;20097;-75
2021/09/08 17:07:28;;;;;;;16.30;9.38;;;;;;;28.36;38.80;101213.16;10527524;28;20039;-75
2021/09/08 17:12:29;;;;;;;13.43;11.13;;;;;;;27.97;39.28;101172.75;10545036;28;20036;-74
2021/09/08 17:17:29;;;;;;;17.05;9.80;;;;;;;27.98;39.16;101168.00;10527261;28;20063;-74
2021/09/08 17:22:29;;;;;;;19.05;9.82;;;;;;;27.96;39.58;101192.53;10543981;28;20089;-74
2021/09/08 17:27:30;;;;;;;17.33;10.38;;;;;;;27.91;39.99;101190.66;10544658;28;20032;-74
2021/09/08 17:32:30;;;;;;;17.25;10.27;;;;;;;27.90;40.21;101199.34;10544586;28;20036;-74
2021/09/08 17:37:31;;;;;;;14.07;9.95;;;;;;;27.69;40.47;101196.06;10526616;28;20036;-75
2021/09/08 17:47:38;;;;;;;11.05;8.88;;;;;;;27.54;40.82;101203.56;10510806;28;20478;-74
2021/09/08 17:52:39;;;;;;;13.23;9.60;;;;;;;26.43;40.84;101037.41;10525107;28;20082;-74
2021/09/08 17:57:40;;;;;;;8.65;7.85;;;;;;;27.37;41.22;101200.50;10525148;28;20479;-74
2021/09/08 18:02:40;;;;;;;11.73;8.10;;;;;;;27.15;41.27;101201.13;10542782;28;20050;-74
2021/09/08 18:07:40;;;;;;;14.02;9.55;;;;;;;26.73;41.88;101161.16;10542808;28;20117;-74
2021/09/08 18:12:41;;;;;;;14.35;9.32;;;;;;;26.89;41.54;101209.00;10542591;28;20093;-74
2021/09/08 18:17:43;;;;;;;9.80;8.13;;;;;;;26.63;42.39;101203.78;10524300;28;20036;-74
2021/09/08 18:22:44;;;;;;;8.80;7.45;;;;;;;26.32;43.18;101188.59;10507482;28;20103;-74
2021/09/08 18:27:44;;;;;;;11.95;8.23;;;;;;;25.25;43.16;101027.78;10542064;28;20036;-74
2021/09/08 18:32:45;;;;;;;15.30;8.57;;;;;;;26.28;43.26;101209.78;10523361;28;20028;-74
2021/09/08 18:37:46;;;;;;;11.70;9.73;;;;;;;26.13;43.45;101213.53;10541209;28;20485;-75
2021/09/08 18:42:47;;;;;;;23.50;11.32;;;;;;;24.97;44.23;101047.97;10540667;28;20048;-75
2021/09/08 18:47:48;;;;;;;10.82;8.93;;;;;;;25.92;44.06;101215.72;10514877;28;20177;-75
2021/09/08 18:52:49;;;;;;;13.80;9.23;;;;;;;25.25;44.41;101146.97;10507053;28;20056;-76
2021/09/08 18:57:50;;;;;;;11.73;9.88;;;;;;;25.60;44.76;101194.91;10476362;28;20025;-74
2021/09/08 19:02:51;;;;;;;13.68;8.73;;;;;;;25.11;44.88;101156.19;10521712;28;20440;-77
2021/09/08 19:07:51;;;;;;;18.42;8.85;;;;;;;25.20;45.12;101179.44;10521132;28;20047;-77
2021/09/08 19:12:51;;;;;;;11.63;9.55;;;;;;;24.51;45.43;101096.22;10521958;28;20040;-75
2021/09/08 19:17:52;;;;;;;9.88;8.82;;;;;;;24.41;45.56;101093.53;10494472;28;20032;-76
2021/09/08 19:22:52;;;;;;;18.85;12.15;;;;;;;25.04;45.50;101214.72;10479128;28;20036;-76
2021/09/08 19:27:59;;;;;;;22.13;10.90;;;;;;;24.03;46.14;101070.19;10478811;28;20036;-76
2021/09/08 19:33:00;;;;;;;19.67;10.70;;;;;;;24.89;46.02;101217.56;10480625;28;20115;-75
2021/09/08 19:38:00;;;;;;;10.80;9.52;;;;;;;24.76;46.06;101216.25;10497189;28;20033;-75
2021/09/08 19:43:01;;;;;;;11.02;9.77;;;;;;;24.75;45.82;101207.13;10462761;28;20028;-76
2021/09/08 19:48:01;;;;;;;11.13;10.02;;;;;;;24.44;46.28;101177.91;10497180;28;20033;-76
2021/09/08 19:53:02;;;;;;;18.45;10.30;;;;;;;24.28;46.05;101191.81;10495296;28;20052;-75
2021/09/08 19:58:02;;;;;;;16.00;11.45;;;;;;;24.39;46.26;101200.06;10479683;28;20126;-76
2021/09/08 20:03:03;;;;;;;21.92;10.63;;;;;;;23.61;46.46;101083.28;10496755;28;20064;-75
2021/09/08 20:08:03;;;;;;;15.27;10.73;;;;;;;24.20;46.68;101206.22;10479633;28;20040;-75
2021/09/08 20:13:03;;;;;;;12.27;11.05;;;;;;;23.07;46.09;101048.00;10496947;28;20032;-75
2021/09/08 20:18:04;;;;;;;15.20;11.30;;;;;;;23.92;47.11;101191.06;10497220;28;20048;-75
2021/09/08 20:23:04;;;;;;;12.40;11.02;;;;;;;23.92;47.53;101204.09;10478200;28;20044;-75
2021/09/08 20:28:05;;;;;;;12.73;10.63;;;;;;;23.87;47.38;101205.75;10496668;28;20075;-75
2021/09/08 20:33:05;;;;;;;15.43;12.40;;;;;;;23.31;47.78;101122.84;10503318;28;20040;-75
2021/09/08 20:38:06;;;;;;;17.08;11.77;;;;;;;23.31;47.42;101142.19;10486892;28;20044;-75
2021/09/08 20:43:06;;;;;;;21.27;10.98;;;;;;;23.43;48.22;101181.44;10504904;28;20068;-76
2021/09/08 20:48:06;;;;;;;16.77;12.45;;;;;;;23.18;48.18;101145.50;10504425;28;20111;-75
2021/09/08 20:53:08;;;;;;;16.60;12.48;;;;;;;23.49;48.05;101189.72;10485490;28;20488;-75
2021/09/08 20:58:09;;;;;;;19.38;13.52;;;;;;;23.39;48.46;101190.56;10504178;28;20036;-75
2021/09/08 21:03:09;;;;;;;19.38;15.98;;;;;;;23.25;49.18;101184.75;10485989;28;20040;-75
2021/09/08 21:08:09;;;;;;;25.55;16.55;;;;;;;23.24;49.20;101187.78;10503849;28;20426;-75
2021/09/08 21:13:11;;;;;;;26.75;16.45;;;;;;;22.97;49.43;101147.41;10503020;28;20037;-75
2021/09/08 21:18:11;;;;;;;17.05;15.35;;;;;;;23.03;49.38;101170.34;10503057;28;20036;-75
2021/09/08 21:23:12;;;;;;;31.40;18.10;;;;;;;23.04;49.51;101177.53;10501045;28;20033;-75
2021/09/08 21:28:12;;;;;;;17.27;15.35;;;;;;;22.95;49.81;101180.03;10502830;28;20040;-75
2021/09/08 21:33:13;;;;;;;26.40;18.85;;;;;;;22.92;49.89;101181.34;10468372;28;20126;-75
2021/09/08 21:38:13;;;;;;;26.00;18.20;;;;;;;22.87;49.90;101178.56;10503105;28;20036;-75
2021/09/08 21:43:13;;;;;;;34.90;17.92;;;;;;;22.81;49.54;101192.66;10484124;28;20044;-75
2021/09/08 21:48:14;;;;;;;32.22;19.65;;;;;;;22.57;50.35;101142.63;10502640;28;20024;-75
2021/09/08 21:53:15;;;;;;;27.02;18.02;;;;;;;21.94;50.78;101059.88;10501050;28;20507;-74
2021/09/08 21:58:15;;;;;;;26.35;18.55;;;;;;;22.50;51.29;101163.03;10501882;28;20036;-75
2021/09/08 22:03:15;;;;;;;25.65;18.25;;;;;;;22.40;51.73;101160.25;10484376;28;20036;-75
2021/09/08 22:08:16;;;;;;;35.78;19.55;;;;;;;22.24;52.26;101175.06;10501517;28;20044;-75
2021/09/08 22:13:16;;;;;;;29.17;21.80;;;;;;;21.95;53.40;101108.41;10483407;28;20032;-75
2021/09/08 22:18:17;;;;;;;29.25;21.48;;;;;;;22.22;53.11;101141.41;10501368;28;20044;-75
2021/09/08 22:23:17;;;;;;;21.70;19.38;;;;;;;21.36;53.34;101013.03;10500111;28;20388;-75
2021/09/08 22:28:18;;;;;;;25.90;21.88;;;;;;;22.11;53.75;101136.91;10482742;28;20456;-75
2021/09/08 22:33:18;;;;;;;21.73;18.45;;;;;;;21.01;53.60;100975.06;10500655;28;20033;-75
2021/09/08 22:38:19;;;;;;;24.92;20.42;;;;;;;21.21;54.24;101019.25;10500539;28;20075;-75
2021/09/08 22:43:20;;;;;;;36.88;19.77;;;;;;;20.46;54.37;100922.06;10499953;28;20032;-75